sensor_id;sensor_type;location;lat;lon;timestamp;P1;durP1;ratioP1;P2;durP2;ratioP2
17631;SDS011;8934;51.194;17.150;2023-03-01T00:01:36;81.60;;;35.08;;
17631;SDS011;8934;51.194;17.150;2023-03-01T00:04:23;71.63;;;32.80;;
17631;SDS011;8934;51.194;17.150;2023-03-01T00:07:11;77.10;;;32.75;;
17631;SDS011;8934;51.194;17.150;2023-03-01T00:09:59;81.15;;;34.85;;
17631;SDS011;8934;51.194;17.150;2023-03-01T00:12:48;94.30;;;37.22;;
17631;SDS011;8934;51.194;17.150;2023-03-01T00:15:38;83.57;;;34.03;;
17631;SDS011;8934;51.194;17.150;2023-03-01T00:18:27;65.38;;;29.67;;
17631;SDS011;8934;51.194;17.150;2023-03-01T00:21:14;74.00;;;30.90;;
17631;SDS011;8934;51.194;17.150;2023-03-01T00:24:02;59.17;;;28.55;;
17631;SDS011;8934;51.194;17.150;2023-03-01T00:26:52;63.35;;;27.90;;
17631;SDS011;8934;51.194;17.150;2023-03-01T00:29:42;53.53;;;26.38;;
17631;SDS011;8934;51.194;17.150;2023-03-01T00:32:30;58.80;;;26.50;;
17631;SDS011;8934;51.194;17.150;2023-03-01T00:35:18;57.95;;;25.80;;
17631;SDS011;8934;51.194;17.150;2023-03-01T00:38:05;53.58;;;24.45;;
17631;SDS011;8934;51.194;17.150;2023-03-01T00:40:54;55.35;;;26.42;;
17631;SDS011;8934;51.194;17.150;2023-03-01T00:43:42;60.63;;;26.17;;
17631;SDS011;8934;51.194;17.150;2023-03-01T00:46:31;60.22;;;26.55;;
17631;SDS011;8934;51.194;17.150;2023-03-01T00:49:20;66.50;;;29.48;;
17631;SDS011;8934;51.194;17.150;2023-03-01T00:52:10;62.20;;;29.90;;
17631;SDS011;8934;51.194;17.150;2023-03-01T00:54:57;73.63;;;28.70;;
17631;SDS011;8934;51.194;17.150;2023-03-01T00:57:45;77.78;;;34.50;;
17631;SDS011;8934;51.194;17.150;2023-03-01T01:00:32;79.50;;;33.33;;
17631;SDS011;8934;51.194;17.150;2023-03-01T01:03:22;68.00;;;32.38;;
17631;SDS011;8934;51.194;17.150;2023-03-01T01:06:14;73.50;;;31.83;;
17631;SDS011;8934;51.194;17.150;2023-03-01T01:09:03;71.22;;;33.13;;
17631;SDS011;8934;51.194;17.150;2023-03-01T01:11:52;64.88;;;30.58;;
17631;SDS011;8934;51.194;17.150;2023-03-01T01:14:40;68.75;;;30.95;;
17631;SDS011;8934;51.194;17.150;2023-03-01T01:17:27;62.53;;;26.48;;
17631;SDS011;8934;51.194;17.150;2023-03-01T01:20:17;61.28;;;28.45;;
17631;SDS011;8934;51.194;17.150;2023-03-01T01:23:05;63.50;;;28.98;;
17631;SDS011;8934;51.194;17.150;2023-03-01T01:25:53;58.17;;;30.30;;
17631;SDS011;8934;51.194;17.150;2023-03-01T01:28:41;68.88;;;29.58;;
17631;SDS011;8934;51.194;17.150;2023-03-01T01:31:29;66.22;;;28.52;;
17631;SDS011;8934;51.194;17.150;2023-03-01T01:34:18;70.68;;;32.25;;
17631;SDS011;8934;51.194;17.150;2023-03-01T01:37:09;68.93;;;30.95;;
17631;SDS011;8934;51.194;17.150;2023-03-01T01:39:56;67.70;;;31.13;;
17631;SDS011;8934;51.194;17.150;2023-03-01T01:42:45;75.05;;;33.75;;
17631;SDS011;8934;51.194;17.150;2023-03-01T01:45:33;76.78;;;32.45;;
17631;SDS011;8934;51.194;17.150;2023-03-01T01:48:22;68.63;;;31.00;;
17631;SDS011;8934;51.194;17.150;2023-03-01T01:51:27;75.55;;;32.25;;
17631;SDS011;8934;51.194;17.150;2023-03-01T01:54:26;67.10;;;29.02;;
17631;SDS011;8934;51.194;17.150;2023-03-01T01:57:19;65.53;;;29.85;;
17631;SDS011;8934;51.194;17.150;2023-03-01T02:00:12;71.28;;;31.33;;
17631;SDS011;8934;51.194;17.150;2023-03-01T02:03:03;61.35;;;30.00;;
17631;SDS011;8934;51.194;17.150;2023-03-01T02:05:56;72.18;;;26.65;;
17631;SDS011;8934;51.194;17.150;2023-03-01T02:08:50;61.47;;;27.77;;
17631;SDS011;8934;51.194;17.150;2023-03-01T02:11:40;63.17;;;30.58;;
17631;SDS011;8934;51.194;17.150;2023-03-01T02:14:28;64.55;;;28.70;;
17631;SDS011;8934;51.194;17.150;2023-03-01T02:17:16;63.03;;;27.92;;
17631;SDS011;8934;51.194;17.150;2023-03-01T02:20:09;59.00;;;27.70;;
17631;SDS011;8934;51.194;17.150;2023-03-01T02:23:02;65.15;;;28.15;;
17631;SDS011;8934;51.194;17.150;2023-03-01T02:25:53;60.88;;;29.42;;
17631;SDS011;8934;51.194;17.150;2023-03-01T02:28:46;73.35;;;30.63;;
17631;SDS011;8934;51.194;17.150;2023-03-01T02:31:35;63.58;;;28.05;;
17631;SDS011;8934;51.194;17.150;2023-03-01T02:34:30;56.95;;;25.55;;
17631;SDS011;8934;51.194;17.150;2023-03-01T02:37:19;62.58;;;27.08;;
17631;SDS011;8934;51.194;17.150;2023-03-01T02:40:10;61.67;;;27.02;;
17631;SDS011;8934;51.194;17.150;2023-03-01T02:43:04;69.20;;;28.92;;
17631;SDS011;8934;51.194;17.150;2023-03-01T02:46:02;71.32;;;30.60;;
17631;SDS011;8934;51.194;17.150;2023-03-01T02:48:54;64.00;;;27.70;;
17631;SDS011;8934;51.194;17.150;2023-03-01T02:51:45;56.15;;;26.10;;
17631;SDS011;8934;51.194;17.150;2023-03-01T02:54:44;65.72;;;28.05;;
17631;SDS011;8934;51.194;17.150;2023-03-01T02:57:36;63.45;;;26.45;;
17631;SDS011;8934;51.194;17.150;2023-03-01T03:00:28;58.17;;;27.10;;
17631;SDS011;8934;51.194;17.150;2023-03-01T03:03:23;61.70;;;26.07;;
17631;SDS011;8934;51.194;17.150;2023-03-01T03:06:10;58.40;;;26.83;;
17631;SDS011;8934;51.194;17.150;2023-03-01T03:08:59;62.88;;;28.10;;
17631;SDS011;8934;51.194;17.150;2023-03-01T03:11:46;66.10;;;28.83;;
17631;SDS011;8934;51.194;17.150;2023-03-01T03:14:34;66.90;;;27.13;;
17631;SDS011;8934;51.194;17.150;2023-03-01T03:17:22;67.97;;;27.73;;
17631;SDS011;8934;51.194;17.150;2023-03-01T03:20:11;67.40;;;27.33;;
17631;SDS011;8934;51.194;17.150;2023-03-01T03:23:05;57.45;;;24.98;;
17631;SDS011;8934;51.194;17.150;2023-03-01T03:25:52;59.90;;;25.30;;
17631;SDS011;8934;51.194;17.150;2023-03-01T03:28:39;59.20;;;25.88;;
17631;SDS011;8934;51.194;17.150;2023-03-01T03:31:27;66.50;;;26.13;;
17631;SDS011;8934;51.194;17.150;2023-03-01T03:34:15;56.25;;;24.65;;
17631;SDS011;8934;51.194;17.150;2023-03-01T03:37:05;56.67;;;24.42;;
17631;SDS011;8934;51.194;17.150;2023-03-01T03:40:12;63.30;;;27.20;;
17631;SDS011;8934;51.194;17.150;2023-03-01T03:43:01;57.05;;;24.70;;
17631;SDS011;8934;51.194;17.150;2023-03-01T03:45:50;66.10;;;26.30;;
17631;SDS011;8934;51.194;17.150;2023-03-01T03:48:39;61.08;;;25.70;;
17631;SDS011;8934;51.194;17.150;2023-03-01T03:51:28;58.08;;;24.48;;
17631;SDS011;8934;51.194;17.150;2023-03-01T03:54:17;65.35;;;26.90;;
17631;SDS011;8934;51.194;17.150;2023-03-01T03:57:05;60.28;;;27.92;;
17631;SDS011;8934;51.194;17.150;2023-03-01T03:59:52;66.43;;;25.63;;
17631;SDS011;8934;51.194;17.150;2023-03-01T04:02:40;67.85;;;29.00;;
17631;SDS011;8934;51.194;17.150;2023-03-01T04:05:29;69.65;;;29.70;;
17631;SDS011;8934;51.194;17.150;2023-03-01T04:08:17;81.15;;;34.72;;
17631;SDS011;8934;51.194;17.150;2023-03-01T04:11:08;74.72;;;31.90;;
17631;SDS011;8934;51.194;17.150;2023-03-01T04:14:14;83.70;;;32.63;;
17631;SDS011;8934;51.194;17.150;2023-03-01T04:17:01;70.25;;;29.77;;
17631;SDS011;8934;51.194;17.150;2023-03-01T04:19:50;74.68;;;31.42;;
17631;SDS011;8934;51.194;17.150;2023-03-01T04:22:39;68.10;;;31.05;;
17631;SDS011;8934;51.194;17.150;2023-03-01T04:25:27;61.17;;;25.67;;
17631;SDS011;8934;51.194;17.150;2023-03-01T04:28:17;74.28;;;29.98;;
17631;SDS011;8934;51.194;17.150;2023-03-01T04:31:06;72.38;;;31.48;;
17631;SDS011;8934;51.194;17.150;2023-03-01T04:33:59;68.93;;;30.23;;
17631;SDS011;8934;51.194;17.150;2023-03-01T04:36:47;73.60;;;30.38;;
17631;SDS011;8934;51.194;17.150;2023-03-01T04:39:35;69.45;;;28.65;;
17631;SDS011;8934;51.194;17.150;2023-03-01T04:42:31;68.07;;;28.23;;
17631;SDS011;8934;51.194;17.150;2023-03-01T04:45:20;66.95;;;27.52;;
17631;SDS011;8934;51.194;17.150;2023-03-01T04:48:07;67.18;;;28.67;;
17631;SDS011;8934;51.194;17.150;2023-03-01T04:50:55;72.90;;;28.23;;
17631;SDS011;8934;51.194;17.150;2023-03-01T04:53:42;62.35;;;26.73;;
17631;SDS011;8934;51.194;17.150;2023-03-01T04:56:30;62.90;;;26.02;;
17631;SDS011;8934;51.194;17.150;2023-03-01T04:59:18;66.90;;;26.98;;
17631;SDS011;8934;51.194;17.150;2023-03-01T05:02:09;63.83;;;25.20;;
17631;SDS011;8934;51.194;17.150;2023-03-01T05:04:57;65.22;;;27.63;;
17631;SDS011;8934;51.194;17.150;2023-03-01T05:07:44;61.88;;;27.40;;
17631;SDS011;8934;51.194;17.150;2023-03-01T05:10:32;68.07;;;26.75;;
17631;SDS011;8934;51.194;17.150;2023-03-01T05:13:23;65.57;;;27.17;;
17631;SDS011;8934;51.194;17.150;2023-03-01T05:16:11;63.92;;;27.05;;
17631;SDS011;8934;51.194;17.150;2023-03-01T05:19:00;68.35;;;27.80;;
17631;SDS011;8934;51.194;17.150;2023-03-01T05:21:57;59.53;;;25.95;;
17631;SDS011;8934;51.194;17.150;2023-03-01T05:24:50;61.95;;;23.65;;
17631;SDS011;8934;51.194;17.150;2023-03-01T05:27:39;54.92;;;27.45;;
17631;SDS011;8934;51.194;17.150;2023-03-01T05:30:27;59.75;;;25.65;;
17631;SDS011;8934;51.194;17.150;2023-03-01T05:33:15;61.40;;;24.17;;
17631;SDS011;8934;51.194;17.150;2023-03-01T05:36:04;57.33;;;25.60;;
17631;SDS011;8934;51.194;17.150;2023-03-01T05:38:54;53.95;;;23.90;;
17631;SDS011;8934;51.194;17.150;2023-03-01T05:41:41;52.95;;;22.83;;
17631;SDS011;8934;51.194;17.150;2023-03-01T05:44:29;57.42;;;23.52;;
17631;SDS011;8934;51.194;17.150;2023-03-01T05:47:17;55.00;;;25.08;;
17631;SDS011;8934;51.194;17.150;2023-03-01T05:50:04;55.95;;;24.25;;
17631;SDS011;8934;51.194;17.150;2023-03-01T05:52:58;60.58;;;26.85;;
17631;SDS011;8934;51.194;17.150;2023-03-01T05:55:47;70.35;;;27.52;;
17631;SDS011;8934;51.194;17.150;2023-03-01T05:58:35;59.80;;;27.00;;
17631;SDS011;8934;51.194;17.150;2023-03-01T06:01:24;57.33;;;26.10;;
17631;SDS011;8934;51.194;17.150;2023-03-01T06:04:11;61.03;;;24.67;;
17631;SDS011;8934;51.194;17.150;2023-03-01T06:06:59;59.97;;;26.67;;
17631;SDS011;8934;51.194;17.150;2023-03-01T06:09:48;62.85;;;26.48;;
17631;SDS011;8934;51.194;17.150;2023-03-01T06:12:36;72.63;;;28.38;;
17631;SDS011;8934;51.194;17.150;2023-03-01T06:15:25;67.63;;;28.30;;
17631;SDS011;8934;51.194;17.150;2023-03-01T06:18:13;69.40;;;28.05;;
17631;SDS011;8934;51.194;17.150;2023-03-01T06:21:00;66.95;;;29.02;;
17631;SDS011;8934;51.194;17.150;2023-03-01T06:23:48;69.65;;;28.08;;
17631;SDS011;8934;51.194;17.150;2023-03-01T06:26:37;66.75;;;29.08;;
17631;SDS011;8934;51.194;17.150;2023-03-01T06:29:24;73.22;;;29.10;;
17631;SDS011;8934;51.194;17.150;2023-03-01T06:32:12;74.22;;;27.42;;
17631;SDS011;8934;51.194;17.150;2023-03-01T06:34:59;65.22;;;26.27;;
17631;SDS011;8934;51.194;17.150;2023-03-01T06:37:47;68.53;;;28.23;;
17631;SDS011;8934;51.194;17.150;2023-03-01T06:40:35;59.22;;;26.58;;
17631;SDS011;8934;51.194;17.150;2023-03-01T06:43:23;61.72;;;26.13;;
17631;SDS011;8934;51.194;17.150;2023-03-01T06:46:11;63.17;;;27.35;;
17631;SDS011;8934;51.194;17.150;2023-03-01T06:48:59;78.18;;;30.58;;
17631;SDS011;8934;51.194;17.150;2023-03-01T06:51:47;79.22;;;33.42;;
17631;SDS011;8934;51.194;17.150;2023-03-01T06:54:34;91.55;;;35.40;;
17631;SDS011;8934;51.194;17.150;2023-03-01T06:57:22;86.47;;;35.25;;
17631;SDS011;8934;51.194;17.150;2023-03-01T07:00:11;80.05;;;34.83;;
17631;SDS011;8934;51.194;17.150;2023-03-01T07:03:00;90.63;;;36.38;;
17631;SDS011;8934;51.194;17.150;2023-03-01T07:05:49;102.22;;;44.53;;
17631;SDS011;8934;51.194;17.150;2023-03-01T07:08:38;106.35;;;45.22;;
17631;SDS011;8934;51.194;17.150;2023-03-01T07:11:25;102.90;;;46.22;;
17631;SDS011;8934;51.194;17.150;2023-03-01T07:14:13;126.50;;;48.65;;
17631;SDS011;8934;51.194;17.150;2023-03-01T07:17:02;124.78;;;50.33;;
17631;SDS011;8934;51.194;17.150;2023-03-01T07:19:49;124.25;;;48.47;;
17631;SDS011;8934;51.194;17.150;2023-03-01T07:22:39;124.50;;;47.75;;
17631;SDS011;8934;51.194;17.150;2023-03-01T07:25:26;129.88;;;50.90;;
17631;SDS011;8934;51.194;17.150;2023-03-01T07:28:14;149.70;;;58.50;;
17631;SDS011;8934;51.194;17.150;2023-03-01T07:31:02;133.50;;;55.10;;
17631;SDS011;8934;51.194;17.150;2023-03-01T07:33:51;149.55;;;54.85;;
17631;SDS011;8934;51.194;17.150;2023-03-01T07:36:39;142.48;;;56.08;;
17631;SDS011;8934;51.194;17.150;2023-03-01T07:39:28;150.55;;;60.75;;
17631;SDS011;8934;51.194;17.150;2023-03-01T07:42:16;129.50;;;52.65;;
17631;SDS011;8934;51.194;17.150;2023-03-01T07:45:04;118.65;;;51.05;;
17631;SDS011;8934;51.194;17.150;2023-03-01T07:47:53;119.75;;;48.92;;
17631;SDS011;8934;51.194;17.150;2023-03-01T07:50:42;123.38;;;47.53;;
17631;SDS011;8934;51.194;17.150;2023-03-01T07:53:30;106.57;;;43.85;;
17631;SDS011;8934;51.194;17.150;2023-03-01T07:56:19;107.57;;;41.28;;
17631;SDS011;8934;51.194;17.150;2023-03-01T07:59:07;97.57;;;42.85;;
17631;SDS011;8934;51.194;17.150;2023-03-01T08:01:54;91.95;;;41.63;;
17631;SDS011;8934;51.194;17.150;2023-03-01T08:04:42;83.28;;;39.28;;
17631;SDS011;8934;51.194;17.150;2023-03-01T08:07:31;90.85;;;38.20;;
17631;SDS011;8934;51.194;17.150;2023-03-01T08:10:19;85.20;;;36.17;;
17631;SDS011;8934;51.194;17.150;2023-03-01T08:13:08;81.05;;;36.65;;
17631;SDS011;8934;51.194;17.150;2023-03-01T08:16:00;77.82;;;34.45;;
17631;SDS011;8934;51.194;17.150;2023-03-01T08:18:48;72.75;;;33.20;;
17631;SDS011;8934;51.194;17.150;2023-03-01T08:21:36;72.25;;;31.88;;
17631;SDS011;8934;51.194;17.150;2023-03-01T08:24:26;62.70;;;30.75;;
17631;SDS011;8934;51.194;17.150;2023-03-01T08:27:14;62.03;;;26.48;;
17631;SDS011;8934;51.194;17.150;2023-03-01T08:30:02;60.70;;;28.25;;
17631;SDS011;8934;51.194;17.150;2023-03-01T08:32:50;61.55;;;27.63;;
17631;SDS011;8934;51.194;17.150;2023-03-01T08:35:38;52.50;;;25.48;;
17631;SDS011;8934;51.194;17.150;2023-03-01T08:38:26;55.28;;;25.08;;
17631;SDS011;8934;51.194;17.150;2023-03-01T08:41:17;54.10;;;24.42;;
17631;SDS011;8934;51.194;17.150;2023-03-01T08:44:04;52.03;;;22.77;;
17631;SDS011;8934;51.194;17.150;2023-03-01T08:46:53;47.38;;;23.38;;
17631;SDS011;8934;51.194;17.150;2023-03-01T08:49:41;50.78;;;23.65;;
17631;SDS011;8934;51.194;17.150;2023-03-01T08:52:28;42.50;;;21.35;;
17631;SDS011;8934;51.194;17.150;2023-03-01T08:55:16;40.08;;;20.58;;
17631;SDS011;8934;51.194;17.150;2023-03-01T08:58:05;36.25;;;18.63;;
17631;SDS011;8934;51.194;17.150;2023-03-01T09:00:53;33.35;;;16.73;;
17631;SDS011;8934;51.194;17.150;2023-03-01T09:03:42;34.58;;;20.30;;
17631;SDS011;8934;51.194;17.150;2023-03-01T09:06:30;43.72;;;20.55;;
17631;SDS011;8934;51.194;17.150;2023-03-01T09:09:19;41.88;;;19.65;;
17631;SDS011;8934;51.194;17.150;2023-03-01T09:12:06;39.90;;;19.42;;
17631;SDS011;8934;51.194;17.150;2023-03-01T09:14:55;37.40;;;18.45;;
17631;SDS011;8934;51.194;17.150;2023-03-01T09:17:43;34.97;;;18.70;;
17631;SDS011;8934;51.194;17.150;2023-03-01T09:20:30;31.85;;;17.55;;
17631;SDS011;8934;51.194;17.150;2023-03-01T09:23:18;28.33;;;15.35;;
17631;SDS011;8934;51.194;17.150;2023-03-01T09:26:06;29.73;;;15.68;;
17631;SDS011;8934;51.194;17.150;2023-03-01T09:28:55;25.17;;;14.68;;
17631;SDS011;8934;51.194;17.150;2023-03-01T09:31:44;29.35;;;15.45;;
17631;SDS011;8934;51.194;17.150;2023-03-01T09:34:32;32.35;;;16.05;;
17631;SDS011;8934;51.194;17.150;2023-03-01T09:37:39;29.23;;;16.90;;
17631;SDS011;8934;51.194;17.150;2023-03-01T09:40:28;28.50;;;14.80;;
17631;SDS011;8934;51.194;17.150;2023-03-01T09:43:19;30.55;;;17.10;;
17631;SDS011;8934;51.194;17.150;2023-03-01T09:46:12;28.48;;;15.73;;
17631;SDS011;8934;51.194;17.150;2023-03-01T09:49:05;28.85;;;16.27;;
17631;SDS011;8934;51.194;17.150;2023-03-01T09:51:59;28.98;;;15.43;;
17631;SDS011;8934;51.194;17.150;2023-03-01T09:54:54;30.90;;;16.73;;
17631;SDS011;8934;51.194;17.150;2023-03-01T09:57:47;31.70;;;16.52;;
17631;SDS011;8934;51.194;17.150;2023-03-01T10:00:39;32.00;;;17.90;;
17631;SDS011;8934;51.194;17.150;2023-03-01T10:03:32;30.55;;;17.13;;
17631;SDS011;8934;51.194;17.150;2023-03-01T10:06:27;34.53;;;18.25;;
17631;SDS011;8934;51.194;17.150;2023-03-01T10:09:20;35.33;;;17.80;;
17631;SDS011;8934;51.194;17.150;2023-03-01T10:12:09;31.17;;;17.48;;
17631;SDS011;8934;51.194;17.150;2023-03-01T10:15:00;36.80;;;16.50;;
17631;SDS011;8934;51.194;17.150;2023-03-01T10:17:55;28.67;;;16.67;;
17631;SDS011;8934;51.194;17.150;2023-03-01T10:20:46;30.10;;;15.75;;
17631;SDS011;8934;51.194;17.150;2023-03-01T10:23:41;28.83;;;15.52;;
17631;SDS011;8934;51.194;17.150;2023-03-01T10:26:32;25.38;;;14.35;;
17631;SDS011;8934;51.194;17.150;2023-03-01T10:29:42;29.13;;;14.75;;
17631;SDS011;8934;51.194;17.150;2023-03-01T10:32:35;27.80;;;16.20;;
17631;SDS011;8934;51.194;17.150;2023-03-01T10:35:23;31.65;;;16.10;;
17631;SDS011;8934;51.194;17.150;2023-03-01T10:38:13;26.92;;;15.68;;
17631;SDS011;8934;51.194;17.150;2023-03-01T10:41:05;27.92;;;14.55;;
17631;SDS011;8934;51.194;17.150;2023-03-01T10:43:54;28.83;;;15.82;;
17631;SDS011;8934;51.194;17.150;2023-03-01T10:46:43;30.73;;;15.40;;
17631;SDS011;8934;51.194;17.150;2023-03-01T10:49:31;28.00;;;14.90;;
17631;SDS011;8934;51.194;17.150;2023-03-01T10:52:20;25.60;;;14.15;;
17631;SDS011;8934;51.194;17.150;2023-03-01T10:55:21;26.30;;;14.32;;
17631;SDS011;8934;51.194;17.150;2023-03-01T10:58:18;25.60;;;13.85;;
17631;SDS011;8934;51.194;17.150;2023-03-01T11:01:23;24.23;;;12.35;;
17631;SDS011;8934;51.194;17.150;2023-03-01T11:04:13;19.90;;;11.35;;
17631;SDS011;8934;51.194;17.150;2023-03-01T11:07:01;23.08;;;12.10;;
17631;SDS011;8934;51.194;17.150;2023-03-01T11:09:49;20.63;;;10.57;;
17631;SDS011;8934;51.194;17.150;2023-03-01T11:12:36;21.23;;;11.85;;
17631;SDS011;8934;51.194;17.150;2023-03-01T11:15:26;20.42;;;10.98;;
17631;SDS011;8934;51.194;17.150;2023-03-01T11:18:19;13.77;;;8.65;;
17631;SDS011;8934;51.194;17.150;2023-03-01T11:21:21;15.32;;;7.60;;
17631;SDS011;8934;51.194;17.150;2023-03-01T11:24:11;20.15;;;10.40;;
17631;SDS011;8934;51.194;17.150;2023-03-01T11:27:03;16.33;;;9.07;;
17631;SDS011;8934;51.194;17.150;2023-03-01T11:29:54;14.38;;;7.70;;
17631;SDS011;8934;51.194;17.150;2023-03-01T11:32:50;14.50;;;8.77;;
17631;SDS011;8934;51.194;17.150;2023-03-01T11:35:47;14.32;;;8.85;;
17631;SDS011;8934;51.194;17.150;2023-03-01T11:38:42;18.88;;;10.70;;
17631;SDS011;8934;51.194;17.150;2023-03-01T11:41:31;19.65;;;11.43;;
17631;SDS011;8934;51.194;17.150;2023-03-01T11:44:23;13.93;;;8.15;;
17631;SDS011;8934;51.194;17.150;2023-03-01T11:47:20;15.45;;;8.35;;
17631;SDS011;8934;51.194;17.150;2023-03-01T11:50:23;16.88;;;10.25;;
17631;SDS011;8934;51.194;17.150;2023-03-01T11:56:34;18.27;;;11.13;;
17631;SDS011;8934;51.194;17.150;2023-03-01T11:59:28;21.45;;;10.93;;
17631;SDS011;8934;51.194;17.150;2023-03-01T12:06:17;21.70;;;11.98;;
17631;SDS011;8934;51.194;17.150;2023-03-01T12:09:22;20.08;;;11.20;;
17631;SDS011;8934;51.194;17.150;2023-03-01T12:12:29;17.70;;;11.07;;
17631;SDS011;8934;51.194;17.150;2023-03-01T12:22:01;21.83;;;13.57;;
17631;SDS011;8934;51.194;17.150;2023-03-01T12:28:24;22.13;;;12.15;;
17631;SDS011;8934;51.194;17.150;2023-03-01T12:38:01;21.88;;;12.57;;
17631;SDS011;8934;51.194;17.150;2023-03-01T12:41:02;19.17;;;12.68;;
17631;SDS011;8934;51.194;17.150;2023-03-01T12:44:28;20.33;;;12.63;;
17631;SDS011;8934;51.194;17.150;2023-03-01T12:47:26;20.02;;;12.18;;
17631;SDS011;8934;51.194;17.150;2023-03-01T12:50:27;20.00;;;12.32;;
17631;SDS011;8934;51.194;17.150;2023-03-01T12:53:26;21.17;;;12.15;;
17631;SDS011;8934;51.194;17.150;2023-03-01T12:56:17;20.27;;;11.77;;
17631;SDS011;8934;51.194;17.150;2023-03-01T12:59:09;22.58;;;12.23;;
17631;SDS011;8934;51.194;17.150;2023-03-01T13:02:04;19.83;;;12.50;;
17631;SDS011;8934;51.194;17.150;2023-03-01T13:05:06;19.60;;;12.40;;
17631;SDS011;8934;51.194;17.150;2023-03-01T13:08:08;19.02;;;11.90;;
17631;SDS011;8934;51.194;17.150;2023-03-01T13:11:04;22.85;;;13.07;;
17631;SDS011;8934;51.194;17.150;2023-03-01T13:14:02;20.65;;;12.38;;
17631;SDS011;8934;51.194;17.150;2023-03-01T13:17:30;20.65;;;12.48;;
17631;SDS011;8934;51.194;17.150;2023-03-01T13:20:20;22.10;;;13.10;;
17631;SDS011;8934;51.194;17.150;2023-03-01T13:23:12;20.73;;;12.30;;
17631;SDS011;8934;51.194;17.150;2023-03-01T13:26:14;22.45;;;12.68;;
17631;SDS011;8934;51.194;17.150;2023-03-01T13:29:02;19.83;;;12.15;;
17631;SDS011;8934;51.194;17.150;2023-03-01T13:34:48;21.42;;;11.40;;
17631;SDS011;8934;51.194;17.150;2023-03-01T13:37:39;19.20;;;11.73;;
17631;SDS011;8934;51.194;17.150;2023-03-01T13:43:45;23.08;;;12.60;;
17631;SDS011;8934;51.194;17.150;2023-03-01T13:46:34;21.83;;;12.50;;
17631;SDS011;8934;51.194;17.150;2023-03-01T13:49:25;20.10;;;11.35;;
17631;SDS011;8934;51.194;17.150;2023-03-01T13:52:32;22.02;;;12.45;;
17631;SDS011;8934;51.194;17.150;2023-03-01T13:55:27;20.50;;;12.30;;
17631;SDS011;8934;51.194;17.150;2023-03-01T13:58:23;21.00;;;11.40;;
17631;SDS011;8934;51.194;17.150;2023-03-01T14:01:20;19.95;;;11.82;;
17631;SDS011;8934;51.194;17.150;2023-03-01T14:04:18;21.25;;;12.43;;
17631;SDS011;8934;51.194;17.150;2023-03-01T14:07:08;18.85;;;12.00;;
17631;SDS011;8934;51.194;17.150;2023-03-01T14:09:58;19.48;;;12.52;;
17631;SDS011;8934;51.194;17.150;2023-03-01T14:12:48;20.45;;;12.00;;
17631;SDS011;8934;51.194;17.150;2023-03-01T14:15:49;26.63;;;14.35;;
17631;SDS011;8934;51.194;17.150;2023-03-01T14:18:54;22.17;;;13.27;;
17631;SDS011;8934;51.194;17.150;2023-03-01T14:21:57;20.27;;;12.68;;
17631;SDS011;8934;51.194;17.150;2023-03-01T14:24:50;23.42;;;13.98;;
17631;SDS011;8934;51.194;17.150;2023-03-01T14:27:39;23.42;;;13.30;;
17631;SDS011;8934;51.194;17.150;2023-03-01T14:30:30;23.98;;;13.45;;
17631;SDS011;8934;51.194;17.150;2023-03-01T14:33:24;21.33;;;12.40;;
17631;SDS011;8934;51.194;17.150;2023-03-01T14:36:14;23.35;;;13.38;;
17631;SDS011;8934;51.194;17.150;2023-03-01T14:39:02;19.08;;;12.32;;
17631;SDS011;8934;51.194;17.150;2023-03-01T14:42:04;22.75;;;13.70;;
17631;SDS011;8934;51.194;17.150;2023-03-01T14:45:01;23.17;;;13.25;;
17631;SDS011;8934;51.194;17.150;2023-03-01T14:47:50;21.95;;;13.48;;
17631;SDS011;8934;51.194;17.150;2023-03-01T14:50:40;23.65;;;13.35;;
17631;SDS011;8934;51.194;17.150;2023-03-01T14:53:30;21.00;;;14.10;;
17631;SDS011;8934;51.194;17.150;2023-03-01T14:56:43;19.95;;;13.15;;
17631;SDS011;8934;51.194;17.150;2023-03-01T14:59:32;22.33;;;12.77;;
17631;SDS011;8934;51.194;17.150;2023-03-01T15:02:21;19.58;;;12.90;;
17631;SDS011;8934;51.194;17.150;2023-03-01T15:05:13;21.20;;;13.50;;
17631;SDS011;8934;51.194;17.150;2023-03-01T15:08:01;21.98;;;14.10;;
17631;SDS011;8934;51.194;17.150;2023-03-01T15:10:59;21.00;;;13.98;;
17631;SDS011;8934;51.194;17.150;2023-03-01T15:13:52;22.35;;;13.63;;
17631;SDS011;8934;51.194;17.150;2023-03-01T15:16:40;25.77;;;14.27;;
17631;SDS011;8934;51.194;17.150;2023-03-01T15:19:29;22.80;;;13.90;;
17631;SDS011;8934;51.194;17.150;2023-03-01T15:22:17;19.20;;;12.50;;
17631;SDS011;8934;51.194;17.150;2023-03-01T15:25:05;25.00;;;13.50;;
17631;SDS011;8934;51.194;17.150;2023-03-01T15:28:02;20.13;;;11.43;;
17631;SDS011;8934;51.194;17.150;2023-03-01T15:30:54;26.65;;;13.80;;
17631;SDS011;8934;51.194;17.150;2023-03-01T15:33:44;22.00;;;12.40;;
17631;SDS011;8934;51.194;17.150;2023-03-01T15:36:36;23.30;;;12.88;;
17631;SDS011;8934;51.194;17.150;2023-03-01T15:39:33;22.85;;;12.45;;
17631;SDS011;8934;51.194;17.150;2023-03-01T15:42:36;19.30;;;11.80;;
17631;SDS011;8934;51.194;17.150;2023-03-01T15:45:27;20.25;;;11.88;;
17631;SDS011;8934;51.194;17.150;2023-03-01T15:48:17;23.42;;;13.10;;
17631;SDS011;8934;51.194;17.150;2023-03-01T15:51:09;20.02;;;11.07;;
17631;SDS011;8934;51.194;17.150;2023-03-01T15:54:01;23.15;;;13.80;;
17631;SDS011;8934;51.194;17.150;2023-03-01T15:56:51;22.38;;;13.43;;
17631;SDS011;8934;51.194;17.150;2023-03-01T15:59:39;25.17;;;12.48;;
17631;SDS011;8934;51.194;17.150;2023-03-01T16:02:27;22.25;;;13.20;;
17631;SDS011;8934;51.194;17.150;2023-03-01T16:05:20;25.73;;;13.38;;
17631;SDS011;8934;51.194;17.150;2023-03-01T16:08:09;25.35;;;13.57;;
17631;SDS011;8934;51.194;17.150;2023-03-01T16:10:57;25.50;;;14.15;;
17631;SDS011;8934;51.194;17.150;2023-03-01T16:13:44;30.85;;;15.65;;
17631;SDS011;8934;51.194;17.150;2023-03-01T16:16:32;37.30;;;16.55;;
17631;SDS011;8934;51.194;17.150;2023-03-01T16:19:22;33.00;;;15.30;;
17631;SDS011;8934;51.194;17.150;2023-03-01T16:22:10;26.77;;;15.63;;
17631;SDS011;8934;51.194;17.150;2023-03-01T16:24:58;29.17;;;14.13;;
17631;SDS011;8934;51.194;17.150;2023-03-01T16:27:46;28.83;;;16.27;;
17631;SDS011;8934;51.194;17.150;2023-03-01T16:30:35;26.95;;;13.60;;
17631;SDS011;8934;51.194;17.150;2023-03-01T16:33:23;30.60;;;16.42;;
17631;SDS011;8934;51.194;17.150;2023-03-01T16:36:20;37.47;;;17.88;;
17631;SDS011;8934;51.194;17.150;2023-03-01T16:39:09;30.90;;;16.08;;
17631;SDS011;8934;51.194;17.150;2023-03-01T16:41:59;31.98;;;15.82;;
17631;SDS011;8934;51.194;17.150;2023-03-01T16:44:47;28.20;;;14.43;;
17631;SDS011;8934;51.194;17.150;2023-03-01T16:47:34;27.42;;;13.55;;
17631;SDS011;8934;51.194;17.150;2023-03-01T16:50:22;24.73;;;13.82;;
17631;SDS011;8934;51.194;17.150;2023-03-01T16:53:11;32.75;;;15.13;;
17631;SDS011;8934;51.194;17.150;2023-03-01T16:55:59;25.75;;;12.50;;
17631;SDS011;8934;51.194;17.150;2023-03-01T16:58:47;27.30;;;13.40;;
17631;SDS011;8934;51.194;17.150;2023-03-01T17:01:34;27.88;;;13.52;;
17631;SDS011;8934;51.194;17.150;2023-03-01T17:04:26;34.97;;;16.88;;
17631;SDS011;8934;51.194;17.150;2023-03-01T17:07:14;29.48;;;13.90;;
17631;SDS011;8934;51.194;17.150;2023-03-01T17:10:03;29.02;;;15.00;;